createdAt,value
2023-04-08T00:01:14.325Z,8.57
2023-04-08T00:03:42.219Z,8.38
2023-04-08T00:06:10.144Z,8.11
2023-04-08T00:08:39.264Z,7.86
2023-04-08T00:11:07.292Z,8.35
2023-04-08T00:13:35.039Z,8.48
2023-04-08T00:16:03.177Z,8.30
2023-04-08T00:18:30.891Z,8.57
2023-04-08T00:20:58.643Z,8.60
2023-04-08T00:23:26.362Z,8.64
2023-04-08T00:25:55.430Z,8.54
2023-04-08T00:28:23.164Z,8.46
2023-04-08T00:30:51.355Z,8.49
2023-04-08T00:33:19.109Z,8.44
2023-04-08T00:35:47.277Z,8.30
2023-04-08T00:38:15.016Z,8.67
2023-04-08T00:40:42.871Z,8.35
2023-04-08T00:43:12.112Z,8.40
2023-04-08T00:45:39.859Z,8.32
2023-04-08T00:48:07.702Z,8.62
2023-04-08T00:50:35.430Z,8.62
2023-04-08T00:53:03.151Z,8.67
2023-04-08T00:55:30.874Z,8.45
2023-04-08T00:57:59.430Z,8.77
2023-04-08T01:00:31.495Z,8.07
2023-04-08T01:03:08.878Z,8.01
2023-04-08T01:05:44.954Z,7.73
2023-04-08T01:08:13.211Z,8.34
2023-04-08T01:10:44.389Z,8.56
2023-04-08T01:13:15.593Z,8.44
2023-04-08T01:15:46.269Z,8.60
2023-04-08T01:18:16.745Z,8.30
2023-04-08T01:20:45.411Z,9.09
2023-04-08T01:23:21.982Z,8.25
2023-04-08T01:25:52.955Z,7.91
2023-04-08T01:28:22.128Z,8.63
2023-04-08T01:30:51.058Z,8.72
2023-04-08T01:33:20.617Z,8.87
2023-04-08T01:35:48.754Z,8.55
2023-04-08T01:38:19.189Z,8.51
2023-04-08T01:40:48.920Z,8.75
2023-04-08T01:43:20.508Z,9.64
2023-04-08T01:45:49.861Z,8.39
2023-04-08T01:48:17.768Z,8.82
2023-04-08T01:50:46.566Z,8.86
2023-04-08T01:53:14.434Z,8.85
2023-04-08T01:55:44.037Z,8.76
2023-04-08T01:58:18.173Z,9.27
2023-04-08T02:00:48.317Z,8.97
2023-04-08T02:03:20.025Z,8.93
2023-04-08T02:05:48.090Z,9.04
2023-04-08T02:08:15.781Z,8.46
2023-04-08T02:10:43.524Z,9.03
2023-04-08T02:13:11.271Z,8.28
2023-04-08T02:15:44.120Z,8.78
2023-04-08T02:18:17.122Z,8.50
2023-04-08T02:20:48.914Z,8.78
2023-04-08T02:23:23.519Z,8.99
2023-04-08T02:25:51.607Z,9.14
2023-04-08T02:28:19.968Z,9.03
2023-04-08T02:30:51.135Z,8.86
2023-04-08T02:33:22.527Z,8.42
2023-04-08T02:35:52.135Z,8.94
2023-04-08T02:38:20.233Z,8.95
2023-04-08T02:40:50.807Z,8.50
2023-04-08T02:43:18.554Z,8.43
2023-04-08T02:45:46.820Z,8.62
2023-04-08T02:48:14.595Z,8.19
2023-04-08T02:50:43.672Z,8.82
2023-04-08T02:53:11.431Z,8.64
2023-04-08T02:55:40.101Z,8.16
2023-04-08T02:58:07.855Z,8.62
2023-04-08T03:00:35.879Z,8.78
2023-04-08T03:03:03.816Z,8.38
2023-04-08T03:05:31.633Z,8.17
2023-04-08T03:08:00.709Z,8.21
2023-04-08T03:10:28.518Z,8.26
2023-04-08T03:12:56.292Z,8.33
2023-04-08T03:15:24.057Z,8.51
2023-04-08T03:17:51.843Z,8.49
2023-04-08T03:20:19.622Z,9.06
2023-04-08T03:22:47.372Z,8.57
2023-04-08T03:25:16.517Z,8.39
2023-04-08T03:27:44.237Z,8.53
2023-04-08T03:30:12.305Z,8.57
2023-04-08T03:32:40.070Z,8.37
2023-04-08T03:35:08.450Z,8.51
2023-04-08T03:37:36.202Z,8.28
2023-04-08T03:40:04.990Z,8.38
2023-04-08T03:42:35.084Z,8.59
2023-04-08T03:45:02.812Z,8.99
2023-04-08T03:47:30.588Z,8.46
2023-04-08T03:49:58.354Z,8.58
2023-04-08T03:52:26.104Z,8.58
2023-04-08T03:54:53.806Z,8.23
2023-04-08T03:57:21.565Z,8.61
2023-04-08T03:59:50.656Z,8.18
2023-04-08T04:02:18.486Z,7.95
2023-04-08T04:04:46.341Z,8.17
2023-04-08T04:07:14.096Z,8.72
2023-04-08T04:09:41.776Z,9.41
2023-04-08T04:12:09.529Z,8.99
2023-04-08T04:14:37.252Z,9.14
2023-04-08T04:17:06.393Z,8.73
2023-04-08T04:19:34.126Z,9.17
2023-04-08T04:22:01.881Z,8.99
2023-04-08T04:24:29.588Z,9.04
2023-04-08T04:26:57.354Z,9.22
2023-04-08T04:29:25.179Z,9.43
2023-04-08T04:31:52.984Z,9.11
2023-04-08T04:34:22.099Z,9.31
2023-04-08T04:36:49.835Z,9.33
2023-04-08T04:39:17.550Z,8.92
2023-04-08T04:41:46.068Z,8.71
2023-04-08T04:44:13.813Z,8.58
2023-04-08T04:46:41.573Z,9.05
2023-04-08T04:49:09.688Z,8.74
2023-04-08T04:51:38.780Z,8.79
2023-04-08T04:54:06.515Z,8.50
2023-04-08T04:56:34.272Z,8.85
2023-04-08T04:59:02.026Z,8.86
2023-04-08T05:01:30.063Z,8.78
2023-04-08T05:03:57.808Z,8.99
2023-04-08T05:06:26.414Z,8.74
2023-04-08T05:08:55.635Z,8.50
2023-04-08T05:11:23.332Z,8.64
2023-04-08T05:13:51.052Z,8.93
2023-04-08T05:16:18.802Z,8.58
2023-04-08T05:18:46.515Z,8.78
2023-04-08T05:21:14.213Z,8.39
2023-04-08T05:23:41.892Z,8.27
2023-04-08T05:26:11.311Z,8.12
2023-04-08T05:28:39.013Z,9.00
2023-04-08T05:31:06.814Z,8.45
2023-04-08T05:33:34.606Z,8.32
2023-04-08T05:36:02.788Z,8.81
2023-04-08T05:38:30.590Z,9.06
2023-04-08T05:40:58.284Z,9.20
2023-04-08T05:43:27.421Z,8.69
2023-04-08T05:45:55.257Z,8.77
2023-04-08T05:48:23.134Z,8.55
2023-04-08T05:50:51.018Z,8.74
2023-04-08T05:53:18.766Z,8.85
2023-04-08T05:55:46.521Z,8.27
2023-04-08T05:58:14.232Z,8.55
2023-04-08T06:00:43.299Z,8.50
2023-04-08T06:03:11.536Z,8.97
2023-04-08T06:05:39.485Z,8.59
2023-04-08T06:08:07.484Z,8.34
2023-04-08T06:10:35.161Z,9.02
2023-04-08T06:13:02.858Z,8.55
2023-04-08T06:15:30.602Z,8.58
2023-04-08T06:17:59.786Z,8.96
2023-04-08T06:20:28.306Z,8.94
2023-04-08T06:22:56.053Z,8.53
2023-04-08T06:25:23.840Z,8.57
2023-04-08T06:27:51.601Z,8.10
2023-04-08T06:30:19.471Z,8.51
2023-04-08T06:32:48.252Z,8.58
2023-04-08T06:35:17.563Z,8.54
2023-04-08T06:37:45.363Z,8.21
2023-04-08T06:40:13.304Z,7.98
2023-04-08T06:42:43.108Z,8.61
2023-04-08T06:45:12.013Z,8.36
2023-04-08T06:47:39.770Z,8.20
2023-04-08T06:50:08.477Z,8.45
2023-04-08T06:52:37.539Z,8.46
2023-04-08T06:55:06.015Z,8.70
2023-04-08T06:57:33.778Z,8.68
2023-04-08T07:00:01.506Z,8.60
2023-04-08T07:02:29.290Z,8.59
2023-04-08T07:04:57.054Z,8.74
2023-04-08T07:07:24.776Z,8.53
2023-04-08T07:09:53.884Z,9.00
2023-04-08T07:12:21.979Z,9.10
2023-04-08T07:14:49.669Z,8.73
2023-04-08T07:17:17.368Z,8.53
2023-04-08T07:19:45.340Z,8.67
2023-04-08T07:22:13.043Z,9.03
2023-04-08T07:24:42.854Z,8.82
2023-04-08T07:27:11.991Z,9.47
2023-04-08T07:29:39.719Z,8.86
2023-04-08T07:32:08.592Z,8.90
2023-04-08T07:34:36.740Z,9.03
2023-04-08T07:37:04.490Z,8.89
2023-04-08T07:39:32.248Z,9.17
2023-04-08T07:41:59.953Z,9.16
2023-04-08T07:44:29.087Z,9.47
2023-04-08T07:46:56.842Z,9.34
2023-04-08T07:49:24.637Z,9.28
2023-04-08T07:51:53.133Z,9.53
2023-04-08T07:54:20.860Z,9.04
2023-04-08T07:56:48.588Z,8.67
2023-04-08T07:59:16.518Z,8.91
2023-04-08T08:01:46.920Z,8.70
2023-04-08T08:04:14.927Z,9.10
2023-04-08T08:06:42.755Z,9.21
2023-04-08T08:09:11.030Z,9.53
2023-04-08T08:11:38.760Z,9.83
2023-04-08T08:14:07.927Z,9.16
2023-04-08T08:16:36.484Z,9.20
2023-04-08T08:19:07.261Z,9.65
2023-04-08T08:21:37.990Z,9.39
2023-04-08T08:24:05.864Z,9.61
2023-04-08T08:26:36.731Z,9.49
2023-04-08T08:29:05.060Z,9.50
2023-04-08T08:31:32.810Z,9.92
2023-04-08T08:34:00.625Z,9.63
2023-04-08T08:36:29.832Z,9.68
2023-04-08T08:38:57.577Z,9.20
2023-04-08T08:41:25.903Z,9.35
2023-04-08T08:43:54.698Z,9.54
2023-04-08T08:46:22.536Z,9.39
2023-04-08T08:48:50.374Z,9.83
2023-04-08T08:51:18.078Z,9.98
2023-04-08T08:53:47.229Z,9.76
2023-04-08T08:56:17.858Z,9.64
2023-04-08T08:58:47.568Z,9.43
2023-04-08T09:01:32.350Z,9.99
2023-04-08T09:04:11.990Z,9.87
2023-04-08T09:06:40.436Z,9.98
2023-04-08T09:09:11.271Z,10.03
2023-04-08T09:11:40.916Z,9.99
2023-04-08T09:14:22.185Z,10.03
2023-04-08T09:16:50.764Z,10.28
2023-04-08T09:19:18.651Z,10.26
2023-04-08T09:21:47.673Z,10.49
2023-04-08T09:24:30.750Z,10.18
2023-04-08T09:26:58.512Z,10.94
2023-04-08T09:29:29.853Z,10.41
2023-04-08T09:32:00.097Z,10.40
2023-04-08T09:34:29.274Z,10.14
2023-04-08T09:36:57.153Z,10.31
2023-04-08T09:39:24.984Z,10.52
2023-04-08T09:42:01.004Z,10.62
2023-04-08T09:44:29.926Z,10.87
2023-04-08T09:47:06.938Z,10.65
2023-04-08T09:49:39.044Z,10.57
2023-04-08T09:52:09.363Z,10.45
2023-04-08T09:54:44.427Z,9.97
2023-04-08T09:57:17.360Z,10.27
2023-04-08T09:59:53.733Z,10.11
2023-04-08T10:02:29.367Z,10.18
2023-04-08T10:05:04.993Z,10.42
2023-04-08T10:07:35.815Z,10.84
2023-04-08T10:10:03.968Z,10.52
2023-04-08T10:12:33.363Z,10.36
2023-04-08T10:15:23.300Z,10.89
2023-04-08T10:17:51.080Z,10.77
2023-04-08T10:20:51.623Z,10.41
2023-04-08T10:23:21.257Z,10.65
2023-04-08T10:25:50.014Z,10.45
2023-04-08T10:28:36.707Z,10.71
2023-04-08T10:31:04.676Z,10.33
2023-04-08T10:33:34.638Z,10.90
2023-04-08T10:36:11.571Z,10.75
2023-04-08T10:38:39.908Z,11.09
2023-04-08T10:41:07.987Z,10.86
2023-04-08T10:43:37.802Z,10.45
2023-04-08T10:46:06.458Z,10.86
2023-04-08T10:48:34.349Z,11.25
2023-04-08T10:51:03.848Z,10.79
2023-04-08T10:53:33.427Z,11.17
2023-04-08T10:56:08.098Z,11.21
2023-04-08T10:58:37.497Z,10.94
2023-04-08T11:01:07.058Z,11.45
2023-04-08T11:03:36.079Z,11.90
2023-04-08T11:06:04.333Z,11.07
2023-04-08T11:08:32.450Z,11.33
2023-04-08T11:11:01.647Z,11.25
2023-04-08T11:13:29.853Z,11.40
2023-04-08T11:16:00.325Z,11.58
2023-04-08T11:18:28.646Z,11.58
2023-04-08T11:20:58.362Z,11.63
2023-04-08T11:23:28.004Z,12.19
2023-04-08T11:25:56.680Z,12.52
2023-04-08T11:28:24.652Z,11.58
2023-04-08T11:30:53.344Z,11.98
2023-04-08T11:33:22.638Z,12.65
2023-04-08T11:35:52.470Z,12.44
2023-04-08T11:38:23.935Z,12.32
2023-04-08T11:40:55.287Z,12.32
2023-04-08T11:43:23.437Z,12.40
2023-04-08T11:45:51.534Z,12.34
2023-04-08T11:48:19.439Z,12.24
2023-04-08T11:50:50.717Z,12.50
2023-04-08T11:53:19.681Z,12.91
2023-04-08T11:55:48.502Z,12.82
2023-04-08T11:58:16.471Z,12.49
2023-04-08T12:00:45.658Z,12.42
2023-04-08T12:03:14.140Z,12.05
2023-04-08T12:05:42.526Z,12.45
2023-04-08T12:08:11.732Z,11.74
2023-04-08T12:10:39.518Z,11.85
2023-04-08T12:13:07.308Z,12.24
2023-04-08T12:15:35.096Z,12.44
2023-04-08T12:18:02.946Z,12.46
2023-04-08T12:20:30.744Z,12.94
2023-04-08T12:22:58.861Z,12.10
2023-04-08T12:25:29.140Z,12.67
2023-04-08T12:27:56.894Z,11.95
2023-04-08T12:30:24.616Z,12.92
2023-04-08T12:32:53.322Z,12.34
2023-04-08T12:35:21.269Z,12.61
2023-04-08T12:37:49.005Z,11.95
2023-04-08T12:40:19.158Z,12.00
2023-04-08T12:42:48.479Z,11.87
2023-04-08T12:45:16.233Z,11.93
2023-04-08T12:47:44.025Z,12.30
2023-04-08T12:50:11.898Z,12.60
2023-04-08T12:52:39.707Z,13.15
2023-04-08T12:55:08.593Z,12.82
2023-04-08T12:57:36.715Z,13.24
2023-04-08T13:00:07.060Z,12.25
2023-04-08T13:02:34.894Z,12.70
2023-04-08T13:05:02.746Z,13.01
2023-04-08T13:07:30.478Z,12.32
2023-04-08T13:09:58.159Z,12.75
2023-04-08T13:12:25.871Z,13.25
2023-04-08T13:14:53.579Z,12.82
2023-04-08T13:17:22.784Z,12.66
2023-04-08T13:19:51.180Z,12.49
2023-04-08T13:22:18.943Z,12.59
2023-04-08T13:24:46.676Z,12.93
2023-04-08T13:27:14.422Z,12.77
2023-04-08T13:29:42.157Z,12.95
2023-04-08T13:32:10.058Z,12.86
2023-04-08T13:34:39.249Z,13.11
2023-04-08T13:37:06.945Z,13.35
2023-04-08T13:39:34.638Z,13.68
2023-04-08T13:42:02.785Z,13.34
2023-04-08T13:44:30.490Z,13.35
2023-04-08T13:46:58.161Z,13.16
2023-04-08T13:49:25.929Z,13.30
2023-04-08T13:51:55.249Z,13.42
2023-04-08T13:54:22.960Z,13.12
2023-04-08T13:56:50.832Z,13.07
2023-04-08T13:59:18.555Z,13.13
2023-04-08T14:01:46.377Z,13.48
2023-04-08T14:04:14.202Z,13.24
2023-04-08T14:06:41.945Z,13.23
2023-04-08T14:09:11.574Z,13.26
2023-04-08T14:11:39.386Z,13.63
2023-04-08T14:14:07.119Z,13.64
2023-04-08T14:16:35.976Z,12.95
2023-04-08T14:19:04.257Z,13.53
2023-04-08T14:21:32.026Z,14.46
2023-04-08T14:24:01.961Z,13.48
2023-04-08T14:26:35.683Z,14.35
2023-04-08T14:29:05.387Z,14.11
2023-04-08T14:31:33.847Z,13.85
2023-04-08T14:34:01.970Z,14.48
2023-04-08T14:36:30.285Z,13.80
2023-04-08T14:38:58.368Z,14.26
2023-04-08T14:41:27.177Z,14.33
2023-04-08T14:43:56.357Z,13.87
2023-04-08T14:46:25.380Z,14.22
2023-04-08T14:48:54.967Z,14.50
2023-04-08T14:51:22.715Z,13.43
2023-04-08T14:53:50.460Z,14.10
2023-04-08T14:56:18.254Z,13.63
2023-04-08T14:58:46.012Z,13.72
2023-04-08T15:01:15.315Z,13.52
2023-04-08T15:03:43.136Z,13.65
2023-04-08T15:06:11.016Z,13.87
2023-04-08T15:08:39.136Z,13.46
2023-04-08T15:11:06.864Z,14.02
2023-04-08T15:13:35.908Z,13.38
2023-04-08T15:16:03.916Z,13.19
2023-04-08T15:18:33.021Z,13.13
2023-04-08T15:21:00.795Z,13.79
2023-04-08T15:23:28.528Z,13.18
2023-04-08T15:25:57.082Z,13.78
2023-04-08T15:28:25.128Z,13.76
2023-04-08T15:30:52.824Z,13.02
2023-04-08T15:33:21.273Z,13.95
2023-04-08T15:35:50.448Z,13.68
2023-04-08T15:38:18.510Z,13.50
2023-04-08T15:40:48.077Z,13.81
2023-04-08T15:43:16.593Z,12.95
2023-04-08T15:45:46.369Z,13.00
2023-04-08T15:48:14.106Z,13.23
2023-04-08T15:50:42.168Z,12.38
2023-04-08T15:53:11.406Z,12.47
2023-04-08T15:55:39.990Z,13.17
2023-04-08T15:58:08.051Z,12.90
2023-04-08T16:00:35.839Z,12.84
2023-04-08T16:03:05.513Z,13.31
2023-04-08T16:05:35.850Z,12.98
2023-04-08T16:08:04.456Z,13.01
2023-04-08T16:10:34.183Z,12.84
2023-04-08T16:13:01.992Z,13.36
2023-04-08T16:15:29.732Z,13.21
2023-04-08T16:17:57.485Z,12.84
2023-04-08T16:20:26.221Z,13.11
2023-04-08T16:22:54.089Z,13.05
2023-04-08T16:25:22.008Z,12.79
2023-04-08T16:27:51.080Z,13.55
2023-04-08T16:30:18.818Z,13.37
2023-04-08T16:32:46.636Z,12.46
2023-04-08T16:35:14.443Z,12.13
2023-04-08T16:37:42.192Z,12.79
2023-04-08T16:40:11.386Z,12.50
2023-04-08T16:42:39.084Z,12.36
2023-04-08T16:45:09.634Z,12.63
2023-04-08T16:47:39.291Z,12.87
2023-04-08T16:50:08.348Z,12.50
2023-04-08T16:52:36.254Z,12.21
2023-04-08T16:55:04.262Z,13.15
2023-04-08T16:57:32.052Z,13.24
2023-04-08T16:59:59.844Z,12.80
2023-04-08T17:02:29.245Z,11.98
2023-04-08T17:04:57.206Z,11.99
2023-04-08T17:07:25.016Z,11.41
2023-04-08T17:09:56.177Z,11.36
2023-04-08T17:12:24.213Z,12.16
2023-04-08T17:14:52.007Z,12.23
2023-04-08T17:17:19.731Z,12.03
2023-04-08T17:19:48.824Z,11.40
2023-04-08T17:22:16.554Z,11.92
2023-04-08T17:24:47.782Z,11.78
2023-04-08T17:27:16.155Z,11.66
2023-04-08T17:29:44.038Z,11.07
2023-04-08T17:32:12.501Z,11.25
2023-04-08T17:34:40.965Z,11.18
2023-04-08T17:37:10.445Z,11.26
2023-04-08T17:39:40.803Z,10.73
2023-04-08T17:42:08.945Z,11.08
2023-04-08T17:44:37.006Z,10.88
2023-04-08T17:47:05.227Z,10.64
2023-04-08T17:49:32.950Z,10.50
2023-04-08T17:52:00.705Z,10.92
2023-04-08T17:54:31.424Z,10.73
2023-04-08T17:56:59.157Z,10.91
2023-04-08T17:59:26.895Z,10.79
2023-04-08T18:01:55.256Z,10.85
2023-04-08T18:04:23.897Z,10.64
2023-04-08T18:06:51.741Z,10.52
2023-04-08T18:09:19.490Z,10.67
2023-04-08T18:11:48.588Z,11.01
2023-04-08T18:14:16.605Z,11.13
2023-04-08T18:16:44.380Z,11.23
2023-04-08T18:19:13.460Z,11.46
2023-04-08T18:21:41.194Z,10.70
2023-04-08T18:24:09.422Z,11.13
2023-04-08T18:26:37.262Z,10.69
2023-04-08T18:29:06.651Z,10.76
2023-04-08T18:31:34.462Z,10.79
2023-04-08T18:34:03.169Z,10.60
2023-04-08T18:36:31.647Z,10.76
2023-04-08T18:38:59.347Z,10.87
2023-04-08T18:41:27.923Z,10.67
2023-04-08T18:43:56.507Z,10.54
2023-04-08T18:46:25.626Z,10.47
2023-04-08T18:48:53.399Z,10.42
2023-04-08T18:51:21.133Z,10.50
2023-04-08T18:53:49.858Z,10.61
2023-04-08T18:56:18.333Z,10.50
2023-04-08T18:58:47.033Z,10.84
2023-04-08T19:01:16.250Z,10.96
2023-04-08T19:03:45.844Z,10.97
2023-04-08T19:06:14.484Z,10.58
2023-04-08T19:08:42.500Z,10.64
2023-04-08T19:11:10.370Z,10.39
2023-04-08T19:13:38.085Z,10.60
2023-04-08T19:16:06.538Z,10.57
2023-04-08T19:18:34.353Z,10.37
2023-04-08T19:21:03.512Z,10.83
2023-04-08T19:23:32.075Z,10.84
2023-04-08T19:25:59.838Z,10.85
2023-04-08T19:28:27.555Z,10.64
2023-04-08T19:30:55.308Z,10.95
2023-04-08T19:33:23.643Z,10.80
2023-04-08T19:35:51.435Z,10.37
2023-04-08T19:38:20.636Z,11.03
2023-04-08T19:40:48.934Z,10.87
2023-04-08T19:43:17.575Z,11.63
2023-04-08T19:45:45.445Z,11.37
2023-04-08T19:48:13.850Z,11.11
2023-04-08T19:50:42.707Z,10.75
2023-04-08T19:53:10.454Z,10.85
2023-04-08T19:55:39.598Z,10.66
2023-04-08T19:58:07.882Z,11.10
2023-04-08T20:00:37.374Z,10.72
2023-04-08T20:03:05.905Z,10.75
2023-04-08T20:05:33.990Z,10.76
2023-04-08T20:08:01.748Z,10.46
2023-04-08T20:10:29.554Z,10.69
2023-04-08T20:12:58.662Z,10.91
2023-04-08T20:15:26.501Z,10.72
2023-04-08T20:17:54.386Z,10.84
2023-04-08T20:20:22.805Z,10.78
2023-04-08T20:22:50.813Z,10.94
2023-04-08T20:25:18.703Z,10.63
2023-04-08T20:27:46.544Z,11.12
2023-04-08T20:30:15.774Z,11.03
2023-04-08T20:32:43.505Z,10.82
2023-04-08T20:35:11.779Z,10.50
2023-04-08T20:37:39.511Z,10.91
2023-04-08T20:40:08.746Z,10.75
2023-04-08T20:42:36.474Z,10.77
2023-04-08T20:45:04.376Z,10.85
2023-04-08T20:47:33.675Z,10.54
2023-04-08T20:50:01.740Z,10.99
2023-04-08T20:52:29.482Z,11.07
2023-04-08T20:54:57.228Z,10.85
2023-04-08T20:57:24.993Z,11.13
2023-04-08T20:59:52.743Z,10.56
2023-04-08T21:02:21.865Z,10.75
2023-04-08T21:04:51.291Z,11.05
2023-04-08T21:07:19.064Z,10.92
2023-04-08T21:09:48.678Z,11.13
2023-04-08T21:12:16.470Z,10.80
2023-04-08T21:14:45.269Z,10.66
2023-04-08T21:17:13.037Z,10.56
2023-04-08T21:19:41.967Z,10.84
2023-04-08T21:22:11.113Z,10.74
2023-04-08T21:24:38.802Z,10.51
2023-04-08T21:27:06.611Z,10.42
2023-04-08T21:29:34.358Z,10.87
2023-04-08T21:32:02.553Z,10.90
2023-04-08T21:34:31.083Z,10.78
2023-04-08T21:36:58.867Z,10.84
2023-04-08T21:39:27.952Z,10.48
2023-04-08T21:41:55.685Z,11.06
2023-04-08T21:44:23.448Z,10.65
2023-04-08T21:46:51.188Z,10.98
2023-04-08T21:49:18.906Z,10.41
2023-04-08T21:51:46.640Z,11.12
2023-04-08T21:54:14.429Z,10.65
2023-04-08T21:56:43.717Z,10.76
2023-04-08T21:59:11.472Z,10.81
2023-04-08T22:01:39.337Z,11.17
2023-04-08T22:04:07.394Z,10.93
2023-04-08T22:06:35.270Z,10.79
2023-04-08T22:09:03.353Z,10.93
2023-04-08T22:11:31.089Z,10.64
2023-04-08T22:14:00.237Z,10.67
2023-04-08T22:16:28.007Z,11.06
2023-04-08T22:18:55.745Z,10.42
2023-04-08T22:21:23.742Z,10.93
2023-04-08T22:23:51.490Z,10.60
2023-04-08T22:26:19.209Z,10.77
2023-04-08T22:28:46.934Z,10.33
2023-04-08T22:31:16.334Z,10.76
2023-04-08T22:33:44.145Z,11.05
2023-04-08T22:36:11.890Z,11.12
2023-04-08T22:38:39.714Z,11.03
2023-04-08T22:41:07.461Z,11.16
2023-04-08T22:43:35.161Z,11.41
2023-04-08T22:46:02.876Z,10.88
2023-04-08T22:48:31.977Z,11.03
2023-04-08T22:50:59.713Z,10.84
2023-04-08T22:53:28.022Z,10.90
2023-04-08T22:55:55.752Z,10.78
2023-04-08T22:58:23.454Z,10.87
2023-04-08T23:00:51.224Z,10.95
2023-04-08T23:03:19.014Z,10.54
2023-04-08T23:05:48.150Z,10.87
2023-04-08T23:08:15.924Z,10.58
2023-04-08T23:10:43.605Z,10.15
2023-04-08T23:13:11.358Z,10.43
2023-04-08T23:15:39.122Z,10.75
2023-04-08T23:18:06.926Z,10.25
2023-04-08T23:20:35.536Z,10.40
2023-04-08T23:23:04.652Z,10.34
2023-04-08T23:25:35.997Z,10.95
2023-04-08T23:28:03.689Z,10.41
2023-04-08T23:30:31.401Z,10.43
2023-04-08T23:32:59.282Z,10.63
2023-04-08T23:35:27.005Z,10.23
2023-04-08T23:37:54.749Z,10.04
2023-04-08T23:40:23.831Z,10.62
2023-04-08T23:42:51.581Z,10.44
2023-04-08T23:45:19.450Z,10.78
2023-04-08T23:47:47.170Z,10.24
2023-04-08T23:50:14.940Z,10.46
2023-04-08T23:52:42.760Z,10.55
2023-04-08T23:55:11.144Z,10.42
2023-04-08T23:57:42.757Z,10.65
